Accueil
METAR-TAF:

METAR-TAF

Aéroports :

Aéroport de Châteauroux-Centre

Châteauroux, France

latitude: 46-51N, longitude: 001-43E, altitude: 160 m

Observation

Le bulletin a été fait il y a 36 minutes, à 15:00 UTC
Vent 11 kt de nord-est
Température 6°C
Humidité 70%
Pression 1029 hPa
Visibilité 10 km ou plus
pas de nuages en-dessous de 1500 mètres et pas de cumulonimbus.

METAR: LFLX 221500Z AUTO 05011KT CAVOK 06/01 Q1029 NOSIG

Heure: 16:36 (15:36 UTC)

Prévision

Le bulletin a été fait il y a 4 heures et 36 minutes, à 11:00 UTC
Prévision valable du 22 à 12 UTC au 23 à 18 UTC
Vent 8 kt de est/nord-est
Visibilité 10 km ou plus
pas de nuages en-dessous de 1500 mètres et pas de cumulonimbus.
Temporairement
du 23 à 05 UTC au 23 à 09 UTC
Visibilité: 7000 m

TAF: LFLX 221100Z 2212/2318 07008KT CAVOK TEMPO 2305/2309 7000 NSC

Observations et prévisions météorologiques de plus de 4000 aéroports (messages METAR et TAF).

Les stations disponibles sont représentées par des disques jaunes et rouges sur la carte.

Passer la souris dessus pour voir le nom de la station.

Cliquer dessus pour voir les observations et prévisions météorologiques.

Pour changer de carte: cliquez sur les boutons verts avec une croix noire pour zoomer, sur le bouton vert avec un tiret pour effectuer un zoom arrière, ou sur les flèches vertes pour les cartes adjacentes.


METAR-TAF: